Skagway, AK

2:29 AM AKST on February 07, 2016 (GMT -0900)
RAWS | | Change Station
CLOSE
Current Station
Personal Weather Station
Location: Skagway, AK
Elevation: 49 ft
Nearby Weather Stations

Elev 49 ft 59.51 °N, 135.34 °W | Updated 12 hours ago

Mostly Cloudy
Mostly Cloudy
33 °F
Feels Like 28 °F
N
7
Wind Variable Wind from NE
Gusts mph

Today
High -- | Low -- °F
--% Chance of Precip.
Yesterday
High -- | Low -- °F
Precip. -- in
Pressure 30.22 in
Visibility 10.0 miles
Clouds Scattered Clouds 2000 ft
Overcast 2800 ft
Windchill 28 °F
Dew Point 26 °F
Humidity 76%
Rainfall in
Snow Depth Not available.
7:58 AM 4:33 PM
Waning Crescent, 2% visible
METAR PAGY 071053Z AUTO 00000KT 10SM SCT020 OVC028 01/M01 A3022 RMK AO2 RAE03UPB03E08 SLP232 P0000 T00111011 TSNO
Pressure 30.22 in
Visibility 10.0 miles
Clouds Scattered Clouds 2000 ft
Overcast 2800 ft
Windchill 28 °F
Dew Point 26 °F
Humidity 76%
Rainfall in
Snow Depth Not available.
7:58 AM 4:33 PM
Waning Crescent, 2% visible
METAR PAGY 071053Z AUTO 00000KT 10SM SCT020 OVC028 01/M01 A3022 RMK AO2 RAE03UPB03E08 SLP232 P0000 T00111011 TSNO

10-Day Weather Forecast

Almanac

Astronomy

Feb. 07, 2016 Rise Set
Actual Time
Civil Twilight
Nautical Twilight
Astronomical Twilight
Moon
Length of Visible Light
Length of Day
Tomorrow will be .
, % of the Moon is Illuminated

Today's Extremes

State Highs State Lows

Community

WunderPhotos

Upload Photos

1,891,170 photos uploaded!

WunderBlog® & News

Nearby

Air Quality

  Air Quality AQ Index Pollutant
Not available.

Snow Depth

Station Depth Elevation

Earthquake Activity

City Distance Mag. Time & Date
Minimum magnitude displayed is 2.5.

Coastal Water Temperatures

Place Temperature

Stations

Nearby Weather Stations

Station Location Temp. Windchill Dew Point Humidity Wind Precip. Elev Updated Type
                   

Watches & Warnings

There are currently no watches in effect.